createdAt,value
2023-01-21T00:01:36.336Z,-1.75
2023-01-21T00:04:04.030Z,-1.78
2023-01-21T00:06:31.665Z,-1.77
2023-01-21T00:09:01.076Z,-1.83
2023-01-21T00:11:28.748Z,-1.83
2023-01-21T00:13:56.967Z,-1.73
2023-01-21T00:16:24.599Z,-1.72
2023-01-21T00:18:52.292Z,-1.77
2023-01-21T00:21:19.978Z,-1.74
2023-01-21T00:23:47.661Z,-1.78
2023-01-21T00:26:16.715Z,-1.80
2023-01-21T00:28:44.824Z,-1.76
2023-01-21T00:31:13.032Z,-1.74
2023-01-21T00:33:40.903Z,-1.77
2023-01-21T00:36:10.199Z,-1.79
2023-01-21T00:38:37.962Z,-1.82
2023-01-21T00:41:07.979Z,-1.81
2023-01-21T00:43:37.089Z,-1.84
2023-01-21T00:46:04.890Z,-1.87
2023-01-21T00:48:32.753Z,-1.84
2023-01-21T00:51:02.260Z,-1.84
2023-01-21T00:53:31.119Z,-1.81
2023-01-21T00:56:02.650Z,-1.77
2023-01-21T00:58:33.436Z,-1.84
2023-01-21T01:01:03.804Z,-1.86
2023-01-21T01:03:31.698Z,-1.83
2023-01-21T01:06:03.228Z,-1.90
2023-01-21T01:08:30.970Z,-1.92
2023-01-21T01:10:58.845Z,-1.92
2023-01-21T01:13:26.669Z,-1.85
2023-01-21T01:15:56.006Z,-1.92
2023-01-21T01:18:26.010Z,-1.96
2023-01-21T01:20:53.975Z,-1.95
2023-01-21T01:23:21.826Z,-1.91
2023-01-21T01:25:58.641Z,-1.95
2023-01-21T01:28:26.769Z,-1.85
2023-01-21T01:30:55.125Z,-1.93
2023-01-21T01:33:22.950Z,-1.92
2023-01-21T01:35:52.044Z,-1.92
2023-01-21T01:38:21.873Z,-1.87
2023-01-21T01:40:53.780Z,-1.89
2023-01-21T01:43:24.426Z,-1.96
2023-01-21T01:45:52.932Z,-2.00
2023-01-21T01:48:25.065Z,-1.98
2023-01-21T01:50:56.611Z,-2.06
2023-01-21T01:53:25.516Z,-2.03
2023-01-21T01:55:53.586Z,-2.07
2023-01-21T01:58:23.342Z,-2.11
2023-01-21T02:00:51.121Z,-2.09
2023-01-21T02:03:37.042Z,-2.11
2023-01-21T02:06:06.374Z,-2.13
2023-01-21T02:08:36.282Z,-2.14
2023-01-21T02:11:07.841Z,-2.17
2023-01-21T02:13:35.741Z,-2.18
2023-01-21T02:16:24.480Z,-2.17
2023-01-21T02:19:02.663Z,-2.19
2023-01-21T02:21:58.269Z,-2.08
2023-01-21T02:24:55.197Z,-2.08
2023-01-21T02:27:37.457Z,-2.07
2023-01-21T02:30:41.689Z,-2.17
2023-01-21T02:33:42.829Z,-2.10
2023-01-21T02:36:38.129Z,-2.14
2023-01-21T02:39:16.817Z,-2.18
2023-01-21T02:42:01.630Z,-2.14
2023-01-21T02:44:38.366Z,-2.14
2023-01-21T02:47:16.150Z,-2.15
2023-01-21T02:49:50.319Z,-2.15
2023-01-21T02:52:19.744Z,-2.15
2023-01-21T02:54:55.956Z,-2.15
2023-01-21T02:57:36.499Z,-2.12
2023-01-21T03:00:11.476Z,-2.12
2023-01-21T03:03:03.438Z,-2.04
2023-01-21T03:05:44.246Z,-2.07
2023-01-21T03:08:19.721Z,-2.04
2023-01-21T03:10:56.551Z,-2.11
2023-01-21T03:13:56.554Z,-2.08
2023-01-21T03:16:48.591Z,-2.17
2023-01-21T03:19:19.866Z,-2.20
2023-01-21T03:21:50.153Z,-2.14
2023-01-21T03:24:22.896Z,-2.18
2023-01-21T03:26:53.941Z,-2.17
2023-01-21T03:29:26.667Z,-2.20
2023-01-21T03:31:58.915Z,-2.20
2023-01-21T03:34:29.319Z,-2.19
2023-01-21T03:37:03.340Z,-2.23
2023-01-21T03:39:37.112Z,-2.18
2023-01-21T03:42:05.318Z,-2.21
2023-01-21T03:44:33.107Z,-2.19
2023-01-21T03:47:05.179Z,-2.23
2023-01-21T03:49:36.065Z,-2.22
2023-01-21T03:52:07.535Z,-2.24
2023-01-21T03:54:37.974Z,-2.25
2023-01-21T03:57:05.682Z,-2.28
2023-01-21T03:59:33.843Z,-2.29
2023-01-21T04:02:01.571Z,-2.33
2023-01-21T04:04:29.221Z,-2.31
2023-01-21T04:06:56.937Z,-2.27
2023-01-21T04:09:29.153Z,-2.27
2023-01-21T04:12:03.160Z,-2.25
2023-01-21T04:14:30.839Z,-2.22
2023-01-21T04:16:58.494Z,-2.27
2023-01-21T04:19:26.161Z,-2.20
2023-01-21T04:21:53.819Z,-2.22
2023-01-21T04:24:21.613Z,-2.24
2023-01-21T04:26:50.660Z,-2.20
2023-01-21T04:29:18.787Z,-2.28
2023-01-21T04:31:49.355Z,-2.25
2023-01-21T04:34:17.684Z,-2.24
2023-01-21T04:36:45.369Z,-2.23
2023-01-21T04:39:13.116Z,-2.25
2023-01-21T04:41:40.775Z,-2.28
2023-01-21T04:44:10.061Z,-2.29
2023-01-21T04:46:37.720Z,-2.26
2023-01-21T04:49:05.559Z,-2.22
2023-01-21T04:51:33.243Z,-2.23
2023-01-21T04:54:00.928Z,-2.26
2023-01-21T04:56:28.591Z,-2.29
2023-01-21T04:58:56.233Z,-2.24
2023-01-21T05:01:25.300Z,-2.29
2023-01-21T05:03:53.095Z,-2.32
2023-01-21T05:06:20.779Z,-2.30
2023-01-21T05:08:51.120Z,-2.38
2023-01-21T05:11:20.776Z,-2.40
2023-01-21T05:13:48.475Z,-2.40
2023-01-21T05:16:16.530Z,-2.39
2023-01-21T05:18:48.531Z,-2.45
2023-01-21T05:21:16.189Z,-2.42
2023-01-21T05:23:43.897Z,-2.40
2023-01-21T05:26:11.595Z,-2.46
2023-01-21T05:28:39.257Z,-2.49
2023-01-21T05:31:07.147Z,-2.54
2023-01-21T05:33:36.094Z,-2.61
2023-01-21T05:36:06.027Z,-2.61
2023-01-21T05:38:33.741Z,-2.72
2023-01-21T05:41:02.917Z,-2.75
2023-01-21T05:43:31.128Z,-2.80
2023-01-21T05:46:01.373Z,-2.92
2023-01-21T05:48:30.165Z,-3.01
2023-01-21T05:51:00.738Z,-3.07
2023-01-21T05:53:29.745Z,-3.14
2023-01-21T05:55:58.276Z,-3.18
2023-01-21T05:58:26.588Z,-3.15
2023-01-21T06:00:55.163Z,-3.19
2023-01-21T06:03:22.920Z,-3.20
2023-01-21T06:05:51.460Z,-3.15
2023-01-21T06:08:23.254Z,-3.11
2023-01-21T06:10:56.511Z,-3.02
2023-01-21T06:13:24.685Z,-2.92
2023-01-21T06:15:55.536Z,-2.94
2023-01-21T06:18:23.741Z,-2.96
2023-01-21T06:20:51.765Z,-2.97
2023-01-21T06:23:19.464Z,-2.96
2023-01-21T06:25:47.163Z,-2.90
2023-01-21T06:28:17.956Z,-2.87
2023-01-21T06:30:45.815Z,-2.86
2023-01-21T06:33:13.567Z,-2.82
2023-01-21T06:35:41.202Z,-2.84
2023-01-21T06:38:08.886Z,-2.79
2023-01-21T06:40:36.560Z,-2.83
2023-01-21T06:43:04.220Z,-2.87
2023-01-21T06:45:33.316Z,-2.89
2023-01-21T06:48:01.056Z,-2.83
2023-01-21T06:50:29.271Z,-2.79
2023-01-21T06:52:56.938Z,-2.80
2023-01-21T06:55:24.637Z,-2.84
2023-01-21T06:57:52.344Z,-2.77
2023-01-21T07:00:20.723Z,-2.82
2023-01-21T07:02:50.267Z,-2.83
2023-01-21T07:05:19.751Z,-2.83
2023-01-21T07:07:47.475Z,-2.91
2023-01-21T07:10:15.681Z,-2.94
2023-01-21T07:12:43.502Z,-2.96
2023-01-21T07:15:11.509Z,-2.90
2023-01-21T07:17:39.170Z,-2.88
2023-01-21T07:20:12.277Z,-2.87
2023-01-21T07:22:40.240Z,-2.89
2023-01-21T07:25:08.889Z,-2.91
2023-01-21T07:27:36.514Z,-2.92
2023-01-21T07:30:04.996Z,-2.90
2023-01-21T07:32:32.654Z,-2.86
2023-01-21T07:35:00.343Z,-2.82
2023-01-21T07:37:29.331Z,-2.77
2023-01-21T07:39:57.037Z,-2.71
2023-01-21T07:42:24.735Z,-2.82
2023-01-21T07:44:52.394Z,-2.81
2023-01-21T07:47:21.756Z,-2.80
2023-01-21T07:49:50.094Z,-2.82
2023-01-21T07:52:18.075Z,-2.83
2023-01-21T07:54:48.208Z,-2.79
2023-01-21T07:57:15.929Z,-2.79
2023-01-21T07:59:43.592Z,-2.78
2023-01-21T08:02:12.916Z,-2.82
2023-01-21T08:04:40.677Z,-2.76
2023-01-21T08:07:11.859Z,-2.76
2023-01-21T08:09:40.999Z,-2.78
2023-01-21T08:12:12.152Z,-2.78
2023-01-21T08:14:39.846Z,-2.77
2023-01-21T08:17:07.519Z,-2.79
2023-01-21T08:19:35.159Z,-2.71
2023-01-21T08:22:02.846Z,-2.59
2023-01-21T08:24:30.518Z,-2.71
2023-01-21T08:26:59.103Z,-2.60
2023-01-21T08:29:31.445Z,-2.58
2023-01-21T08:31:59.594Z,-2.53
2023-01-21T08:34:27.458Z,-2.56
2023-01-21T08:36:55.074Z,-2.68
2023-01-21T08:39:22.726Z,-2.62
2023-01-21T08:41:50.445Z,-2.54
2023-01-21T08:44:18.165Z,-2.49
2023-01-21T08:46:47.290Z,-2.59
2023-01-21T08:49:14.943Z,-2.58
2023-01-21T08:51:42.954Z,-2.56
2023-01-21T08:54:10.877Z,-2.53
2023-01-21T08:56:38.593Z,-2.61
2023-01-21T08:59:06.655Z,-2.53
2023-01-21T09:01:36.166Z,-2.50
2023-01-21T09:04:05.650Z,-2.55
2023-01-21T09:06:33.340Z,-2.49
2023-01-21T09:09:01.605Z,-2.46
2023-01-21T09:11:30.540Z,-2.46
2023-01-21T09:14:03.191Z,-2.29
2023-01-21T09:16:32.470Z,-2.37
2023-01-21T09:19:00.446Z,-2.17
2023-01-21T09:21:30.427Z,-2.12
2023-01-21T09:23:58.368Z,-2.12
2023-01-21T09:26:29.412Z,-1.96
2023-01-21T09:28:59.173Z,-1.93
2023-01-21T09:31:29.549Z,-1.95
2023-01-21T09:33:59.123Z,-1.89
2023-01-21T09:36:30.079Z,-1.88
2023-01-21T09:38:58.393Z,-1.76
2023-01-21T09:41:29.181Z,-1.65
2023-01-21T09:44:04.904Z,-1.60
2023-01-21T09:46:39.132Z,-1.56
2023-01-21T09:49:10.982Z,-1.52
2023-01-21T09:51:53.429Z,-1.70
2023-01-21T09:54:29.053Z,-1.74
2023-01-21T09:57:31.702Z,-1.79
2023-01-21T10:00:14.372Z,-1.59
2023-01-21T10:02:50.138Z,-1.62
2023-01-21T10:05:59.719Z,-1.50
2023-01-21T10:08:38.639Z,-1.64
2023-01-21T10:11:18.707Z,-1.63
2023-01-21T10:14:04.707Z,-1.62
2023-01-21T10:16:41.046Z,-1.59
2023-01-21T10:19:14.287Z,-1.72
2023-01-21T10:21:50.570Z,-1.91
2023-01-21T10:24:22.098Z,-2.01
2023-01-21T10:26:53.591Z,-1.95
2023-01-21T10:29:24.376Z,-1.92
2023-01-21T10:31:59.244Z,-1.92
2023-01-21T10:34:31.210Z,-1.85
2023-01-21T10:37:07.901Z,-1.77
2023-01-21T10:39:47.300Z,-1.76
2023-01-21T10:42:33.136Z,-1.82
2023-01-21T10:45:08.251Z,-1.91
2023-01-21T10:47:45.008Z,-2.01
2023-01-21T10:50:26.113Z,-1.90
2023-01-21T10:53:00.580Z,-1.84
2023-01-21T10:55:41.295Z,-1.71
2023-01-21T10:58:19.453Z,-1.67
2023-01-21T11:00:50.534Z,-1.51
2023-01-21T11:03:41.210Z,-1.39
2023-01-21T11:06:24.703Z,-1.43
2023-01-21T11:08:56.942Z,-1.41
2023-01-21T11:11:31.206Z,-1.52
2023-01-21T11:13:59.214Z,-1.42
2023-01-21T11:16:43.027Z,-1.31
2023-01-21T11:19:14.981Z,-1.36
2023-01-21T11:21:57.564Z,-1.26
2023-01-21T11:24:27.019Z,-1.25
2023-01-21T11:26:57.577Z,-1.33
2023-01-21T11:29:26.482Z,-1.29
2023-01-21T11:32:02.936Z,-1.26
2023-01-21T11:34:31.226Z,-1.25
2023-01-21T11:37:01.047Z,-1.13
2023-01-21T11:39:30.473Z,-1.13
2023-01-21T11:42:05.892Z,-0.96
2023-01-21T11:44:36.404Z,-0.95
2023-01-21T11:47:04.136Z,-1.08
2023-01-21T11:49:36.037Z,-0.97
2023-01-21T11:52:15.553Z,-0.80
2023-01-21T11:54:43.935Z,-0.82
2023-01-21T11:57:40.700Z,-0.87
2023-01-21T12:00:19.665Z,-0.89
2023-01-21T12:02:50.083Z,-0.91
2023-01-21T12:05:24.783Z,-0.94
2023-01-21T12:07:54.326Z,-0.88
2023-01-21T12:10:31.959Z,-0.96
2023-01-21T12:13:13.084Z,-1.02
2023-01-21T12:15:56.686Z,-1.03
2023-01-21T12:18:35.815Z,-1.11
2023-01-21T12:21:06.940Z,-1.23
2023-01-21T12:23:49.448Z,-1.13
2023-01-21T12:26:35.354Z,-1.16
2023-01-21T12:29:19.452Z,-1.11
2023-01-21T12:31:54.542Z,-1.12
2023-01-21T12:34:31.427Z,-1.06
2023-01-21T12:37:03.533Z,-1.09
2023-01-21T12:39:35.341Z,-1.15
2023-01-21T12:42:10.411Z,-1.13
2023-01-21T12:44:46.595Z,-1.12
2023-01-21T12:47:25.767Z,-1.04
2023-01-21T12:50:01.054Z,-1.11
2023-01-21T12:52:35.419Z,-1.01
2023-01-21T12:55:13.095Z,-1.04
2023-01-21T12:57:47.929Z,-1.05
2023-01-21T13:00:23.900Z,-1.01
2023-01-21T13:03:00.200Z,-0.99
2023-01-21T13:05:36.418Z,-1.05
2023-01-21T13:08:21.655Z,-1.00
2023-01-21T13:10:55.376Z,-0.94
2023-01-21T13:13:28.610Z,-0.88
2023-01-21T13:16:02.104Z,-0.79
2023-01-21T13:18:34.320Z,-0.85
2023-01-21T13:21:10.122Z,-0.91
2023-01-21T13:23:46.468Z,-0.81
2023-01-21T13:26:23.445Z,-0.76
2023-01-21T13:29:00.131Z,-0.79
2023-01-21T13:31:34.979Z,-0.75
2023-01-21T13:34:10.055Z,-0.71
2023-01-21T13:36:52.687Z,-0.80
2023-01-21T13:39:27.797Z,-0.81
2023-01-21T13:42:06.364Z,-0.86
2023-01-21T13:45:01.402Z,-0.82
2023-01-21T13:47:54.628Z,-0.77
2023-01-21T13:50:30.751Z,-0.88
2023-01-21T13:53:24.376Z,-0.91
2023-01-21T13:56:03.945Z,-0.87
2023-01-21T13:58:40.532Z,-1.06
2023-01-21T14:01:14.246Z,-1.06
2023-01-21T14:03:48.931Z,-1.14
2023-01-21T14:06:22.503Z,-1.19
2023-01-21T14:08:55.504Z,-1.18
2023-01-21T14:11:30.492Z,-1.20
2023-01-21T14:14:31.683Z,-1.21
2023-01-21T14:17:24.748Z,-1.13
2023-01-21T14:20:11.262Z,-1.15
2023-01-21T14:22:56.032Z,-1.15
2023-01-21T14:25:35.762Z,-1.24
2023-01-21T14:28:13.765Z,-1.31
2023-01-21T14:30:46.405Z,-1.43
2023-01-21T14:33:18.565Z,-1.41
2023-01-21T14:35:55.400Z,-1.44
2023-01-21T14:38:33.977Z,-1.49
2023-01-21T14:41:06.703Z,-1.40
2023-01-21T14:43:52.835Z,-1.54
2023-01-21T14:46:32.711Z,-1.55
2023-01-21T14:49:06.412Z,-1.52
2023-01-21T14:51:37.897Z,-1.52
2023-01-21T14:54:12.610Z,-1.49
2023-01-21T14:56:40.316Z,-1.38
2023-01-21T14:59:24.676Z,-1.54
2023-01-21T15:02:01.373Z,-1.50
2023-01-21T15:04:34.271Z,-1.52
2023-01-21T15:07:09.052Z,-1.60
2023-01-21T15:09:42.663Z,-1.58
2023-01-21T15:12:16.790Z,-1.65
2023-01-21T15:14:45.595Z,-1.59
2023-01-21T15:17:47.459Z,-1.53
2023-01-21T15:20:47.811Z,-1.58
2023-01-21T15:23:22.065Z,-1.58
2023-01-21T15:26:19.081Z,-1.58
2023-01-21T15:28:48.231Z,-1.61
2023-01-21T15:31:40.975Z,-1.61
2023-01-21T15:34:15.618Z,-1.62
2023-01-21T15:36:46.966Z,-1.57
2023-01-21T15:39:18.538Z,-1.65
2023-01-21T15:42:00.903Z,-1.64
2023-01-21T15:44:44.182Z,-1.68
2023-01-21T15:47:37.875Z,-1.67
2023-01-21T15:50:18.168Z,-1.73
2023-01-21T15:53:06.730Z,-1.72
2023-01-21T15:56:05.736Z,-1.75
2023-01-21T15:58:47.447Z,-1.70
2023-01-21T16:01:23.184Z,-1.74
2023-01-21T16:04:08.581Z,-1.74
2023-01-21T16:06:47.945Z,-1.67
2023-01-21T16:09:27.986Z,-1.72
2023-01-21T16:12:09.327Z,-1.75
2023-01-21T16:14:52.420Z,-1.80
2023-01-21T16:17:28.675Z,-1.82
2023-01-21T16:19:59.379Z,-1.82
2023-01-21T16:22:29.874Z,-1.80
2023-01-21T16:25:02.544Z,-1.75
2023-01-21T16:27:32.831Z,-1.84
2023-01-21T16:30:02.120Z,-1.83
2023-01-21T16:32:32.305Z,-1.85
2023-01-21T16:35:00.876Z,-1.90
2023-01-21T16:37:30.111Z,-1.91
2023-01-21T16:40:21.938Z,-1.92
2023-01-21T16:43:07.429Z,-1.91
2023-01-21T16:45:35.204Z,-1.87
2023-01-21T16:48:02.922Z,-1.91
2023-01-21T16:50:32.762Z,-1.88
2023-01-21T16:53:08.391Z,-1.91
2023-01-21T16:55:45.013Z,-1.90
2023-01-21T16:58:23.627Z,-1.89
2023-01-21T17:01:06.156Z,-1.87
2023-01-21T17:03:34.456Z,-1.85
2023-01-21T17:06:06.998Z,-1.88
2023-01-21T17:08:35.061Z,-1.90
2023-01-21T17:11:07.323Z,-1.88
2023-01-21T17:13:40.923Z,-1.92
2023-01-21T17:16:20.903Z,-1.89
2023-01-21T17:18:54.585Z,-1.90
2023-01-21T17:21:30.428Z,-1.90
2023-01-21T17:24:01.210Z,-1.93
2023-01-21T17:26:30.818Z,-1.93
2023-01-21T17:29:10.371Z,-1.94
2023-01-21T17:31:41.174Z,-1.96
2023-01-21T17:34:21.288Z,-1.94
2023-01-21T17:36:51.359Z,-1.93
2023-01-21T17:39:52.211Z,-1.91
2023-01-21T17:42:22.205Z,-2.00
2023-01-21T17:44:54.433Z,-2.06
2023-01-21T17:47:25.745Z,-2.06
2023-01-21T17:49:59.677Z,-2.02
2023-01-21T17:52:27.854Z,-2.06
2023-01-21T17:55:15.342Z,-2.07
2023-01-21T17:57:45.345Z,-2.06
2023-01-21T18:00:43.473Z,-2.04
2023-01-21T18:03:12.274Z,-2.09
2023-01-21T18:05:42.964Z,-2.13
2023-01-21T18:08:14.907Z,-2.14
2023-01-21T18:10:43.115Z,-2.12
2023-01-21T18:13:12.867Z,-2.17
2023-01-21T18:15:43.044Z,-2.14
2023-01-21T18:18:17.244Z,-2.17
2023-01-21T18:20:45.955Z,-2.26
2023-01-21T18:23:15.012Z,-2.24
2023-01-21T18:25:43.241Z,-2.26
2023-01-21T18:28:16.881Z,-2.28
2023-01-21T18:30:46.448Z,-2.33
2023-01-21T18:33:14.805Z,-2.31
2023-01-21T18:35:45.422Z,-2.33
2023-01-21T18:38:13.818Z,-2.40
2023-01-21T18:40:41.506Z,-2.39
2023-01-21T18:43:10.563Z,-2.41
2023-01-21T18:45:38.791Z,-2.46
2023-01-21T18:48:12.136Z,-2.41
2023-01-21T18:50:39.793Z,-2.39
2023-01-21T18:53:07.936Z,-2.38
2023-01-21T18:55:36.145Z,-2.47
2023-01-21T18:58:06.796Z,-2.43
2023-01-21T19:00:35.199Z,-2.55
2023-01-21T19:03:02.951Z,-2.52
2023-01-21T19:05:35.295Z,-2.52
2023-01-21T19:08:05.354Z,-2.46
2023-01-21T19:10:33.221Z,-2.48
2023-01-21T19:13:00.957Z,-2.43
2023-01-21T19:15:29.854Z,-2.46
2023-01-21T19:17:58.547Z,-2.47
2023-01-21T19:20:28.867Z,-2.53
2023-01-21T19:22:57.978Z,-2.47
2023-01-21T19:25:27.437Z,-2.49
2023-01-21T19:27:57.350Z,-2.49
2023-01-21T19:30:27.799Z,-2.49
2023-01-21T19:32:56.809Z,-2.49
2023-01-21T19:35:32.095Z,-2.49
2023-01-21T19:38:01.231Z,-2.54
2023-01-21T19:40:30.622Z,-2.54
2023-01-21T19:42:58.383Z,-2.53
2023-01-21T19:45:29.245Z,-2.58
2023-01-21T19:47:57.385Z,-2.55
2023-01-21T19:50:26.773Z,-2.56
2023-01-21T19:52:56.534Z,-2.55
2023-01-21T19:55:26.466Z,-2.56
2023-01-21T19:57:57.462Z,-2.58
2023-01-21T20:00:28.083Z,-2.50
2023-01-21T20:02:55.865Z,-2.50
2023-01-21T20:05:26.207Z,-2.54
2023-01-21T20:07:55.720Z,-2.51
2023-01-21T20:10:27.251Z,-2.49
2023-01-21T20:12:55.521Z,-2.50
2023-01-21T20:15:28.897Z,-2.52
2023-01-21T20:17:58.943Z,-2.56
2023-01-21T20:20:28.342Z,-2.60
2023-01-21T20:22:56.704Z,-2.54
2023-01-21T20:25:30.142Z,-2.60
2023-01-21T20:27:59.585Z,-2.59
2023-01-21T20:30:32.894Z,-2.54
2023-01-21T20:33:03.006Z,-2.56
2023-01-21T20:35:30.922Z,-2.56
2023-01-21T20:38:01.641Z,-2.56
2023-01-21T20:40:31.601Z,-2.53
2023-01-21T20:42:59.308Z,-2.57
2023-01-21T20:45:31.280Z,-2.61
2023-01-21T20:48:02.207Z,-2.54
2023-01-21T20:50:35.201Z,-2.48
2023-01-21T20:53:03.728Z,-2.51
2023-01-21T20:55:32.961Z,-2.51
2023-01-21T20:58:00.658Z,-2.54
2023-01-21T21:00:33.172Z,-2.52
2023-01-21T21:03:02.105Z,-2.52
2023-01-21T21:05:30.038Z,-2.48
2023-01-21T21:07:57.722Z,-2.52
2023-01-21T21:10:29.352Z,-2.53
2023-01-21T21:12:59.296Z,-2.54
2023-01-21T21:15:28.981Z,-2.49
2023-01-21T21:17:57.056Z,-2.51
2023-01-21T21:20:27.704Z,-2.51
2023-01-21T21:22:55.490Z,-2.53
2023-01-21T21:25:25.453Z,-2.44
2023-01-21T21:27:53.873Z,-2.50
2023-01-21T21:30:29.205Z,-2.46
2023-01-21T21:32:57.506Z,-2.49
2023-01-21T21:35:28.158Z,-2.51
2023-01-21T21:37:57.487Z,-2.48
2023-01-21T21:40:26.638Z,-2.46
2023-01-21T21:43:12.387Z,-2.38
2023-01-21T21:46:01.438Z,-2.47
2023-01-21T21:48:38.393Z,-2.50
2023-01-21T21:51:06.790Z,-2.49
2023-01-21T21:53:34.580Z,-2.52
2023-01-21T21:56:03.831Z,-2.54
2023-01-21T21:58:31.504Z,-2.50
2023-01-21T22:01:09.473Z,-2.51
2023-01-21T22:03:37.596Z,-2.53
2023-01-21T22:06:05.952Z,-2.53
2023-01-21T22:08:34.963Z,-2.51
2023-01-21T22:11:04.266Z,-2.58
2023-01-21T22:13:34.099Z,-2.53
2023-01-21T22:16:03.073Z,-2.62
2023-01-21T22:18:32.737Z,-2.61
2023-01-21T22:21:01.474Z,-2.62
2023-01-21T22:23:30.484Z,-2.63
2023-01-21T22:25:58.161Z,-2.58
2023-01-21T22:28:25.843Z,-2.60
2023-01-21T22:30:53.803Z,-2.61
2023-01-21T22:33:22.274Z,-2.55
2023-01-21T22:35:51.397Z,-2.61
2023-01-21T22:38:19.466Z,-2.61
2023-01-21T22:40:53.793Z,-2.64
2023-01-21T22:43:21.892Z,-2.53
2023-01-21T22:45:49.827Z,-2.56
2023-01-21T22:48:17.686Z,-2.47
2023-01-21T22:50:45.660Z,-2.49
2023-01-21T22:53:14.784Z,-2.52
2023-01-21T23:01:53.148Z,-2.62
2023-01-21T23:04:20.857Z,-2.60
2023-01-21T23:06:48.956Z,-2.59
2023-01-21T23:09:16.905Z,-2.61
2023-01-21T23:11:45.102Z,-2.60
2023-01-21T23:14:13.141Z,-2.63
2023-01-21T23:16:41.208Z,-2.60
2023-01-21T23:19:10.272Z,-2.55
2023-01-21T23:21:38.497Z,-2.57
2023-01-21T23:24:06.683Z,-2.56
2023-01-21T23:26:35.187Z,-2.54
2023-01-21T23:29:02.862Z,-2.53
2023-01-21T23:31:30.652Z,-2.57
2023-01-21T23:33:58.682Z,-2.61
2023-01-21T23:36:27.753Z,-2.64
2023-01-21T23:38:55.514Z,-2.63
2023-01-21T23:41:23.217Z,-2.57
2023-01-21T23:43:50.933Z,-2.59
2023-01-21T23:46:19.965Z,-2.55
2023-01-21T23:48:47.839Z,-2.52
2023-01-21T23:51:17.166Z,-2.55
2023-01-21T23:53:48.912Z,-2.53
2023-01-21T23:56:20.715Z,-2.50
2023-01-21T23:58:48.514Z,-2.56
